createdAt,value
2022-08-16T00:01:41.136Z,1.80
2022-08-16T00:04:09.573Z,1.88
2022-08-16T00:06:39.330Z,1.88
2022-08-16T00:09:10.871Z,1.70
2022-08-16T00:11:38.138Z,1.60
2022-08-16T00:14:12.124Z,1.88
2022-08-16T00:17:00.988Z,2.08
2022-08-16T00:19:41.956Z,2.00
2022-08-16T00:22:13.570Z,1.60
2022-08-16T00:24:47.286Z,1.83
2022-08-16T00:27:18.226Z,1.90
2022-08-16T00:29:47.824Z,2.00
2022-08-16T00:32:32.964Z,1.98
2022-08-16T00:35:02.661Z,1.90
2022-08-16T00:37:56.607Z,2.30
2022-08-16T00:40:50.882Z,1.98
2022-08-16T00:43:43.407Z,2.08
2022-08-16T00:46:33.983Z,2.22
2022-08-16T00:49:04.906Z,2.33
2022-08-16T00:51:34.042Z,2.40
2022-08-16T00:54:03.371Z,2.05
2022-08-16T00:56:56.139Z,2.20
2022-08-16T00:59:29.877Z,2.50
2022-08-16T01:02:00.064Z,2.10
2022-08-16T01:05:10.846Z,1.97
2022-08-16T01:07:50.900Z,2.60
2022-08-16T01:10:32.669Z,2.20
2022-08-16T01:13:12.389Z,2.15
2022-08-16T01:15:53.657Z,2.13
2022-08-16T01:18:39.917Z,2.10
2022-08-16T01:21:10.840Z,2.05
2022-08-16T01:24:00.999Z,2.78
2022-08-16T01:26:35.557Z,2.50
2022-08-16T01:29:09.869Z,2.75
2022-08-16T01:31:42.913Z,2.90
2022-08-16T01:34:23.230Z,2.50
2022-08-16T01:37:07.985Z,2.55
2022-08-16T01:39:36.164Z,2.45
2022-08-16T01:42:12.010Z,2.60
2022-08-16T01:44:45.246Z,2.70
2022-08-16T01:47:17.526Z,2.38
2022-08-16T01:50:41.760Z,2.25
2022-08-16T01:52:38.500Z,2.55
2022-08-16T01:55:08.814Z,2.30
2022-08-16T01:57:40.182Z,2.10
2022-08-16T02:00:29.291Z,2.42
2022-08-16T02:02:57.085Z,2.72
2022-08-16T02:05:23.854Z,2.55
2022-08-16T02:07:52.064Z,2.70
2022-08-16T02:10:20.322Z,2.57
2022-08-16T02:12:52.067Z,2.88
2022-08-16T02:15:27.686Z,3.05
2022-08-16T02:17:58.604Z,2.88
2022-08-16T02:20:27.898Z,2.55
2022-08-16T02:23:01.781Z,2.70
2022-08-16T02:25:51.003Z,3.22
2022-08-16T02:28:19.626Z,2.38
2022-08-16T02:30:50.776Z,2.85
2022-08-16T02:33:19.605Z,2.50
2022-08-16T02:35:55.468Z,2.60
2022-08-16T02:38:31.546Z,2.58
2022-08-16T02:41:00.940Z,2.85
2022-08-16T02:43:33.865Z,2.70
2022-08-16T02:46:07.629Z,2.70
2022-08-16T02:48:35.621Z,2.73
2022-08-16T02:51:11.721Z,2.63
2022-08-16T02:53:43.208Z,2.33
2022-08-16T02:56:15.082Z,2.65
2022-08-16T02:58:47.191Z,2.88
2022-08-16T03:01:24.924Z,3.20
2022-08-16T03:04:39.223Z,2.78
2022-08-16T03:06:56.438Z,2.30
2022-08-16T03:09:28.666Z,3.10
2022-08-16T03:11:59.135Z,2.50
2022-08-16T03:14:37.623Z,2.60
2022-08-16T03:17:09.851Z,2.78
2022-08-16T03:19:47.274Z,2.80
2022-08-16T03:22:19.259Z,2.55
2022-08-16T03:25:00.855Z,2.78
2022-08-16T03:27:32.423Z,3.10
2022-08-16T03:30:17.455Z,2.80
2022-08-16T03:32:47.027Z,3.22
2022-08-16T03:35:15.185Z,3.10
2022-08-16T03:38:02.646Z,3.10
2022-08-16T03:40:36.480Z,2.57
2022-08-16T03:43:20.366Z,2.47
2022-08-16T03:45:52.449Z,2.70
2022-08-16T03:48:36.716Z,2.90
2022-08-16T03:51:12.977Z,2.50
2022-08-16T03:53:43.062Z,3.00
2022-08-16T03:56:20.025Z,2.67
2022-08-16T03:58:50.940Z,3.30
2022-08-16T04:01:21.478Z,2.65
2022-08-16T04:03:49.916Z,2.83
2022-08-16T04:06:16.879Z,2.70
2022-08-16T04:08:48.489Z,2.85
2022-08-16T04:11:16.450Z,2.80
2022-08-16T04:14:00.681Z,2.63
2022-08-16T04:16:33.827Z,3.05
2022-08-16T04:19:04.330Z,2.87
2022-08-16T04:21:47.637Z,2.50
2022-08-16T04:24:14.424Z,3.50
2022-08-16T04:26:45.815Z,3.00
2022-08-16T04:29:24.599Z,2.92
2022-08-16T04:31:58.177Z,2.80
2022-08-16T04:34:32.505Z,3.00
2022-08-16T04:37:01.444Z,3.05
2022-08-16T04:39:37.009Z,3.22
2022-08-16T04:42:26.356Z,3.45
2022-08-16T04:45:01.945Z,3.03
2022-08-16T04:47:33.154Z,3.08
2022-08-16T04:50:29.776Z,3.00
2022-08-16T04:52:57.901Z,2.40
2022-08-16T04:55:37.546Z,2.53
2022-08-16T04:58:43.651Z,2.70
2022-08-16T05:00:53.646Z,3.03
2022-08-16T05:03:20.717Z,3.33
2022-08-16T05:05:59.373Z,3.05
2022-08-16T05:08:32.850Z,2.70
2022-08-16T05:11:05.559Z,2.40
2022-08-16T05:13:40.653Z,3.05
2022-08-16T05:16:11.927Z,3.42
2022-08-16T05:18:43.513Z,2.90
2022-08-16T05:21:13.371Z,3.03
2022-08-16T05:23:51.446Z,2.90
2022-08-16T05:26:24.190Z,3.03
2022-08-16T05:28:57.729Z,3.33
2022-08-16T05:31:30.365Z,2.70
2022-08-16T05:34:04.450Z,3.75
2022-08-16T05:36:36.531Z,3.70
2022-08-16T05:39:08.997Z,3.78
2022-08-16T05:41:45.603Z,3.47
2022-08-16T05:44:23.340Z,3.38
2022-08-16T05:47:00.149Z,3.78
2022-08-16T05:49:39.498Z,3.47
2022-08-16T05:52:10.699Z,4.05
2022-08-16T05:54:46.545Z,3.97
2022-08-16T05:57:17.762Z,3.55
2022-08-16T05:59:50.589Z,3.50
2022-08-16T06:02:30.646Z,4.10
2022-08-16T06:05:03.779Z,3.50
2022-08-16T06:07:32.150Z,3.65
2022-08-16T06:10:00.183Z,4.13
2022-08-16T06:12:29.227Z,3.63
2022-08-16T06:15:11.583Z,3.70
2022-08-16T06:17:44.689Z,3.92
2022-08-16T06:20:23.526Z,4.00
2022-08-16T06:22:58.465Z,3.17
2022-08-16T06:25:35.918Z,3.80
2022-08-16T06:28:08.339Z,3.90
2022-08-16T06:30:44.184Z,3.65
2022-08-16T06:33:19.850Z,3.60
2022-08-16T06:35:54.912Z,4.18
2022-08-16T06:38:33.948Z,4.60
2022-08-16T06:41:03.903Z,4.30
2022-08-16T06:43:33.793Z,4.30
2022-08-16T06:46:05.124Z,4.10
2022-08-16T06:48:37.378Z,4.07
2022-08-16T06:51:09.792Z,4.20
2022-08-16T06:53:36.834Z,4.20
2022-08-16T06:56:14.416Z,3.95
2022-08-16T06:58:52.334Z,4.25
2022-08-16T07:01:44.575Z,4.38
2022-08-16T07:04:10.970Z,3.95
2022-08-16T07:06:40.525Z,4.27
2022-08-16T07:09:11.327Z,4.30
2022-08-16T07:11:45.730Z,4.70
2022-08-16T07:14:24.433Z,4.97
2022-08-16T07:16:54.350Z,4.28
2022-08-16T07:19:21.539Z,4.30
2022-08-16T07:21:59.367Z,5.32
2022-08-16T07:24:30.610Z,4.43
2022-08-16T07:27:00.499Z,3.83
2022-08-16T07:29:31.680Z,3.45
2022-08-16T07:31:59.559Z,3.07
2022-08-16T07:34:35.137Z,3.95
2022-08-16T07:37:07.764Z,4.80
2022-08-16T07:39:43.208Z,4.28
2022-08-16T07:42:11.069Z,4.68
2022-08-16T07:44:52.602Z,4.27
2022-08-16T07:47:19.393Z,4.40
2022-08-16T07:49:57.824Z,4.05
2022-08-16T07:52:30.307Z,3.72
2022-08-16T07:55:02.169Z,3.72
2022-08-16T07:57:29.362Z,3.47
2022-08-16T07:59:57.089Z,3.90
2022-08-16T08:02:28.017Z,3.58
2022-08-16T08:04:55.689Z,3.50
2022-08-16T08:07:27.642Z,3.88
2022-08-16T08:09:58.793Z,3.93
2022-08-16T08:12:31.857Z,3.72
2022-08-16T08:15:10.522Z,3.70
2022-08-16T08:17:44.140Z,3.83
2022-08-16T08:20:20.780Z,3.78
2022-08-16T08:22:59.951Z,3.50
2022-08-16T08:25:54.403Z,3.70
2022-08-16T08:28:16.802Z,3.65
2022-08-16T08:30:51.950Z,3.45
2022-08-16T08:33:27.742Z,3.80
2022-08-16T08:36:01.902Z,3.60
2022-08-16T08:38:44.282Z,4.30
2022-08-16T08:41:18.447Z,3.58
2022-08-16T08:43:46.867Z,3.95
2022-08-16T08:46:22.034Z,3.92
2022-08-16T08:49:01.874Z,4.07
2022-08-16T08:51:35.566Z,3.50
2022-08-16T08:54:09.146Z,3.83
2022-08-16T08:56:37.768Z,3.88
2022-08-16T08:59:20.305Z,3.65
2022-08-16T09:01:57.064Z,3.57
2022-08-16T09:04:24.957Z,3.65
2022-08-16T09:06:54.326Z,3.72
2022-08-16T09:09:24.773Z,3.75
2022-08-16T09:12:00.222Z,3.40
2022-08-16T09:14:35.991Z,3.23
2022-08-16T09:17:21.563Z,3.53
2022-08-16T09:19:55.140Z,3.40
2022-08-16T09:22:23.658Z,4.03
2022-08-16T09:24:54.146Z,3.80
2022-08-16T09:27:57.200Z,3.77
2022-08-16T09:30:33.782Z,3.80
2022-08-16T09:33:06.717Z,3.40
2022-08-16T09:35:39.939Z,3.60
2022-08-16T09:38:12.279Z,3.35
2022-08-16T09:40:42.545Z,3.20
2022-08-16T09:43:46.334Z,3.85
2022-08-16T09:46:04.438Z,3.83
2022-08-16T09:48:52.925Z,3.25
2022-08-16T09:51:26.263Z,3.88
2022-08-16T09:53:59.905Z,3.90
2022-08-16T09:56:31.534Z,3.75
2022-08-16T09:59:03.528Z,3.60
2022-08-16T10:01:33.298Z,3.90
2022-08-16T10:04:28.227Z,3.70
2022-08-16T10:06:56.781Z,3.60
2022-08-16T10:09:25.491Z,3.40
2022-08-16T10:12:33.460Z,3.15
2022-08-16T10:15:00.149Z,3.42
2022-08-16T10:17:29.392Z,4.03
2022-08-16T10:19:56.117Z,4.07
2022-08-16T10:22:23.304Z,3.80
2022-08-16T10:24:56.151Z,4.10
2022-08-16T10:27:45.886Z,3.60
2022-08-16T10:30:26.103Z,3.83
2022-08-16T10:32:59.683Z,4.03
2022-08-16T10:35:32.851Z,4.30
2022-08-16T10:37:59.928Z,4.10
2022-08-16T10:40:29.354Z,4.40
2022-08-16T10:43:02.632Z,4.47
2022-08-16T10:45:36.764Z,3.87
2022-08-16T10:48:27.543Z,3.95
2022-08-16T10:50:59.038Z,4.03
2022-08-16T10:53:32.905Z,4.07
2022-08-16T10:56:52.393Z,4.00
2022-08-16T10:59:32.439Z,4.17
2022-08-16T11:02:56.897Z,4.20
2022-08-16T11:13:21.151Z,4.10
2022-08-16T11:15:55.334Z,4.13
2022-08-16T11:19:03.785Z,4.57
2022-08-16T11:21:29.232Z,4.15
2022-08-16T11:23:59.873Z,4.43
2022-08-16T11:26:28.222Z,4.50
2022-08-16T11:29:13.164Z,3.80
2022-08-16T11:31:45.400Z,3.70
2022-08-16T11:34:16.682Z,4.07
2022-08-16T11:36:53.534Z,4.38
2022-08-16T11:39:27.234Z,3.43
2022-08-16T11:41:55.336Z,3.85
2022-08-16T11:44:51.942Z,4.30
2022-08-16T11:47:11.445Z,4.15
2022-08-16T11:49:40.942Z,3.80
2022-08-16T11:52:10.039Z,4.10
2022-08-16T11:54:37.554Z,3.80
2022-08-16T11:57:09.348Z,4.22
2022-08-16T11:59:39.926Z,3.95
2022-08-16T12:02:31.000Z,4.28
2022-08-16T12:04:55.841Z,4.60
2022-08-16T12:07:25.065Z,4.00
2022-08-16T12:09:55.234Z,3.65
2022-08-16T12:12:24.936Z,4.47
2022-08-16T12:14:59.320Z,4.18
2022-08-16T12:17:32.039Z,3.97
2022-08-16T12:20:07.538Z,4.22
2022-08-16T12:22:36.736Z,4.30
2022-08-16T12:25:10.090Z,3.58
2022-08-16T12:27:39.391Z,4.38
2022-08-16T12:30:08.695Z,4.17
2022-08-16T12:32:56.397Z,3.67
2022-08-16T12:35:30.757Z,3.92
2022-08-16T12:38:38.213Z,4.55
2022-08-16T12:40:55.520Z,4.50
2022-08-16T12:43:25.414Z,3.70
2022-08-16T12:45:55.146Z,3.80
2022-08-16T12:48:46.546Z,4.55
2022-08-16T12:51:19.790Z,3.72
2022-08-16T12:53:53.258Z,3.67
2022-08-16T12:56:25.634Z,3.67
2022-08-16T12:58:53.294Z,3.80
2022-08-16T13:01:28.991Z,3.60
2022-08-16T13:04:11.525Z,3.80
2022-08-16T13:06:41.434Z,4.20
2022-08-16T13:09:21.480Z,4.13
2022-08-16T13:12:09.639Z,4.10
2022-08-16T13:14:42.332Z,3.85
2022-08-16T13:17:18.736Z,4.00
2022-08-16T13:20:07.201Z,4.07
2022-08-16T13:22:37.818Z,4.13
2022-08-16T13:25:08.869Z,4.18
2022-08-16T13:28:02.431Z,3.63
2022-08-16T13:30:36.137Z,3.58
2022-08-16T13:33:12.367Z,3.53
2022-08-16T13:35:45.822Z,3.30
2022-08-16T13:38:27.467Z,3.55
2022-08-16T13:41:00.471Z,3.72
2022-08-16T13:43:32.348Z,3.80
2022-08-16T13:46:05.164Z,3.60
2022-08-16T13:48:42.598Z,3.50
2022-08-16T13:51:17.435Z,3.95
2022-08-16T13:53:59.921Z,3.83
2022-08-16T13:56:37.544Z,3.53
2022-08-16T13:59:19.571Z,3.58
2022-08-16T14:01:54.638Z,3.50
2022-08-16T14:04:27.284Z,3.40
2022-08-16T14:06:57.808Z,3.67
2022-08-16T14:09:25.331Z,3.55
2022-08-16T14:11:56.797Z,3.85
2022-08-16T14:14:28.864Z,3.20
2022-08-16T14:17:00.220Z,3.75
2022-08-16T14:19:29.580Z,3.15
2022-08-16T14:22:14.204Z,3.38
2022-08-16T14:24:45.182Z,3.85
2022-08-16T14:27:15.422Z,3.30
2022-08-16T14:29:44.813Z,3.50
2022-08-16T14:32:13.163Z,3.20
2022-08-16T14:34:53.628Z,3.20
2022-08-16T14:37:25.068Z,3.70
2022-08-16T14:39:56.490Z,3.00
2022-08-16T14:42:26.238Z,3.30
2022-08-16T14:44:56.945Z,3.05
2022-08-16T14:47:34.044Z,2.72
2022-08-16T14:50:01.392Z,2.85
2022-08-16T14:52:54.187Z,2.70
2022-08-16T14:55:16.046Z,2.72
2022-08-16T14:57:43.484Z,2.90
2022-08-16T15:00:13.131Z,3.30
2022-08-16T15:02:42.397Z,3.20
2022-08-16T15:05:10.863Z,3.60
2022-08-16T15:07:44.940Z,3.03
2022-08-16T15:10:24.502Z,3.00
2022-08-16T15:12:56.401Z,3.05
2022-08-16T15:15:28.244Z,3.15
2022-08-16T15:17:56.483Z,3.60
2022-08-16T15:20:29.613Z,3.25
2022-08-16T15:23:00.870Z,3.70
2022-08-16T15:25:41.254Z,3.50
2022-08-16T15:28:24.092Z,3.28
2022-08-16T15:31:00.977Z,3.30
2022-08-16T15:33:32.293Z,2.97
2022-08-16T15:35:59.784Z,3.20
2022-08-16T15:38:55.206Z,3.47
2022-08-16T15:41:42.649Z,3.70
2022-08-16T15:44:26.123Z,3.17
2022-08-16T15:46:59.965Z,2.90
2022-08-16T15:49:38.022Z,3.35
2022-08-16T15:52:35.057Z,3.60
2022-08-16T15:55:13.090Z,3.70
2022-08-16T15:57:51.353Z,3.20
2022-08-16T16:00:20.699Z,3.38
2022-08-16T16:02:49.525Z,3.08
2022-08-16T16:05:19.061Z,3.50
2022-08-16T16:07:56.230Z,3.20
2022-08-16T16:10:30.081Z,3.43
2022-08-16T16:13:00.270Z,3.67
2022-08-16T16:15:31.836Z,3.60
2022-08-16T16:17:59.236Z,3.75
2022-08-16T16:20:38.984Z,3.55
2022-08-16T16:23:10.095Z,3.20
2022-08-16T16:25:38.766Z,3.35
2022-08-16T16:28:12.770Z,3.40
2022-08-16T16:30:58.394Z,3.22
2022-08-16T16:33:29.680Z,3.60
2022-08-16T16:35:59.553Z,3.60
2022-08-16T16:38:31.188Z,3.65
2022-08-16T16:41:04.861Z,3.60
2022-08-16T16:43:40.821Z,3.20
2022-08-16T16:46:39.044Z,3.50
2022-08-16T16:49:03.902Z,3.70
2022-08-16T16:51:32.117Z,3.45
2022-08-16T16:54:08.778Z,3.20
2022-08-16T16:56:37.715Z,3.33
2022-08-16T16:59:11.401Z,3.50
2022-08-16T17:01:59.633Z,3.30
2022-08-16T17:04:32.914Z,3.28
2022-08-16T17:07:01.578Z,3.50
2022-08-16T17:09:28.347Z,3.80
2022-08-16T17:11:56.536Z,3.45
2022-08-16T17:14:33.392Z,3.33
2022-08-16T17:17:06.182Z,3.42
2022-08-16T17:19:33.272Z,3.72
2022-08-16T17:22:02.307Z,3.35
2022-08-16T17:24:39.732Z,3.35
2022-08-16T17:27:08.386Z,3.23
2022-08-16T17:29:42.936Z,3.40
2022-08-16T17:32:33.871Z,3.58
2022-08-16T17:35:11.002Z,3.38
2022-08-16T17:37:50.838Z,3.40
2022-08-16T17:40:40.547Z,3.53
2022-08-16T17:43:10.281Z,3.30
2022-08-16T17:45:39.325Z,3.33
2022-08-16T17:48:06.747Z,3.42
2022-08-16T17:50:33.331Z,2.75
2022-08-16T17:53:01.010Z,3.20
2022-08-16T17:55:31.062Z,3.35
2022-08-16T17:58:00.815Z,3.13
2022-08-16T18:00:37.615Z,3.13
2022-08-16T18:03:05.412Z,3.30
2022-08-16T18:05:33.532Z,2.97
2022-08-16T18:08:00.260Z,3.35
2022-08-16T18:10:32.712Z,3.10
2022-08-16T18:13:01.239Z,3.05
2022-08-16T18:15:28.209Z,3.33
2022-08-16T18:17:54.906Z,3.10
2022-08-16T18:20:41.883Z,3.08
2022-08-16T18:23:17.597Z,3.03
2022-08-16T18:25:54.325Z,3.50
2022-08-16T18:28:21.361Z,3.20
2022-08-16T18:30:51.629Z,3.20
2022-08-16T18:33:20.663Z,3.00
2022-08-16T18:35:52.096Z,3.25
2022-08-16T18:38:22.751Z,3.22
2022-08-16T18:40:53.896Z,3.28
2022-08-16T18:44:22.422Z,2.90
2022-08-16T18:46:09.067Z,2.75
2022-08-16T18:48:40.380Z,3.22
2022-08-16T18:51:14.629Z,3.55
2022-08-16T18:53:45.764Z,3.80
2022-08-16T18:56:17.141Z,3.23
2022-08-16T18:58:43.750Z,3.10
2022-08-16T19:01:12.584Z,3.50
2022-08-16T19:03:41.604Z,3.22
2022-08-16T19:06:13.863Z,3.60
2022-08-16T19:08:43.696Z,3.10
2022-08-16T19:11:15.339Z,3.40
2022-08-16T19:13:45.352Z,3.55
2022-08-16T19:16:14.015Z,3.33
2022-08-16T19:18:41.589Z,3.80
2022-08-16T19:21:14.406Z,3.03
2022-08-16T19:23:43.136Z,3.30
2022-08-16T19:26:20.333Z,3.67
2022-08-16T19:28:59.965Z,3.80
2022-08-16T19:31:33.042Z,3.55
2022-08-16T19:34:03.913Z,3.30
2022-08-16T19:36:36.918Z,3.00
2022-08-16T19:39:10.827Z,3.60
2022-08-16T19:41:42.009Z,3.40
2022-08-16T19:44:09.253Z,3.50
2022-08-16T19:46:38.053Z,3.03
2022-08-16T19:49:05.195Z,3.10
2022-08-16T19:51:31.967Z,3.45
2022-08-16T19:53:59.175Z,3.47
2022-08-16T19:56:26.823Z,3.30
2022-08-16T20:01:42.497Z,3.10
2022-08-16T20:04:14.666Z,3.25
2022-08-16T20:06:43.794Z,2.70
2022-08-16T20:09:15.253Z,3.03
2022-08-16T20:11:46.616Z,3.20
2022-08-16T20:14:24.617Z,3.10
2022-08-16T20:16:56.421Z,3.30
2022-08-16T20:19:27.250Z,3.25
2022-08-16T20:21:56.536Z,3.35
2022-08-16T20:24:35.613Z,3.10
2022-08-16T20:27:06.023Z,3.17
2022-08-16T20:29:35.321Z,3.10
2022-08-16T20:32:05.157Z,3.20
2022-08-16T20:34:31.777Z,3.10
2022-08-16T20:37:03.102Z,3.07
2022-08-16T20:39:29.704Z,3.20
2022-08-16T20:41:59.283Z,3.80
2022-08-16T20:44:25.829Z,3.20
2022-08-16T20:46:53.085Z,2.92
2022-08-16T20:49:19.676Z,2.90
2022-08-16T20:51:54.858Z,3.30
2022-08-16T20:54:22.891Z,3.25
2022-08-16T20:56:49.704Z,3.47
2022-08-16T20:59:16.672Z,3.70
2022-08-16T21:01:46.002Z,3.17
2022-08-16T21:04:21.231Z,3.80
2022-08-16T21:06:53.953Z,3.53
2022-08-16T21:09:28.876Z,3.50
2022-08-16T21:11:57.319Z,4.10
2022-08-16T21:14:26.729Z,3.70
2022-08-16T21:16:56.082Z,3.63
2022-08-16T21:19:25.585Z,3.22
2022-08-16T21:21:54.518Z,4.50
2022-08-16T21:24:23.840Z,4.13
2022-08-16T21:26:56.263Z,3.97
2022-08-16T21:29:31.614Z,3.90
2022-08-16T21:32:19.234Z,3.67
2022-08-16T21:35:08.469Z,3.67
2022-08-16T21:37:35.081Z,4.10
2022-08-16T21:40:02.855Z,3.43
2022-08-16T21:42:34.326Z,3.50
2022-08-16T21:45:05.902Z,3.92
2022-08-16T21:47:32.561Z,3.45
2022-08-16T21:50:02.136Z,4.07
2022-08-16T21:52:28.741Z,3.47
2022-08-16T21:54:57.055Z,3.85
2022-08-16T21:57:24.166Z,3.90
2022-08-16T21:59:54.671Z,3.83
2022-08-16T22:02:23.420Z,3.60
2022-08-16T22:04:50.700Z,3.87
2022-08-16T22:07:21.018Z,3.47
2022-08-16T22:09:50.334Z,3.70
2022-08-16T22:12:24.899Z,3.92
2022-08-16T22:14:54.146Z,4.32
2022-08-16T22:17:20.712Z,3.60
2022-08-16T22:19:50.888Z,3.67
2022-08-16T22:22:18.102Z,3.50
2022-08-16T22:24:49.473Z,3.78
2022-08-16T22:27:16.098Z,3.75
2022-08-16T22:29:42.778Z,3.60
2022-08-16T22:32:09.870Z,3.78
2022-08-16T22:34:38.814Z,4.38
2022-08-16T22:37:05.540Z,4.30
2022-08-16T22:39:32.205Z,4.05
2022-08-16T22:42:07.548Z,4.10
2022-08-16T22:44:35.573Z,3.95
2022-08-16T22:47:06.848Z,4.00
2022-08-16T22:49:35.725Z,3.75
2022-08-16T22:52:09.842Z,4.00
2022-08-16T22:54:48.455Z,3.83
2022-08-16T22:57:15.705Z,3.80
2022-08-16T22:59:44.375Z,4.30
2022-08-16T23:02:11.032Z,4.05
2022-08-16T23:04:39.822Z,3.72
2022-08-16T23:07:06.688Z,4.30
2022-08-16T23:09:36.343Z,4.47
2022-08-16T23:12:04.543Z,4.20
2022-08-16T23:14:31.158Z,4.28
2022-08-16T23:16:57.705Z,4.57
2022-08-16T23:19:24.304Z,4.73
2022-08-16T23:21:50.912Z,4.20
2022-08-16T23:24:20.251Z,4.60
2022-08-16T23:26:48.982Z,4.93
2022-08-16T23:29:26.268Z,4.70
2022-08-16T23:32:11.326Z,4.23
2022-08-16T23:34:38.460Z,4.25
2022-08-16T23:37:05.100Z,4.10
2022-08-16T23:39:31.690Z,4.25
2022-08-16T23:41:58.982Z,4.13
2022-08-16T23:44:55.588Z,4.40
2022-08-16T23:47:12.403Z,4.20
2022-08-16T23:49:57.135Z,4.22
2022-08-16T23:52:42.205Z,4.80
2022-08-16T23:55:17.711Z,4.28
2022-08-16T23:57:45.206Z,4.67
